Time;durP1;ratioP1;P1;durP2;ratioP2;P2;SDS_P1;SDS_P2;PMS_P1;PMS_P2;Temp;Humidity;BMP_temperature;BMP_pressure;BME280_temperature;BME280_humidity;BME280_pressure;Samples;Min_cycle;Max_cycle;Signal;HPM_P1;HPM_P2
2022/03/30 00:01:22;;;;;;;3.83;3.43;;;23.80;49.90;;;;;;5032498;28;20812;-78
2022/03/30 00:03:49;;;;;;;3.60;3.40;;;23.80;50.00;;;;;;5032592;28;20447;-78
2022/03/30 00:06:17;;;;;;;2.93;2.70;;;23.80;50.00;;;;;;5032501;28;20952;-78
2022/03/30 00:08:44;;;;;;;3.47;3.20;;;23.70;49.90;;;;;;5032532;28;20453;-79
2022/03/30 00:11:12;;;;;;;3.50;2.73;;;23.70;49.90;;;;;;5032473;28;20466;-79
2022/03/30 00:13:40;;;;;;;3.40;3.07;;;23.70;49.90;;;;;;5032753;28;20449;-80
2022/03/30 00:16:08;;;;;;;3.67;3.37;;;23.70;49.80;;;;;;5032674;28;20552;-78
2022/03/30 00:18:35;;;;;;;2.80;2.60;;;23.70;49.80;;;;;;5032642;28;20505;-78
2022/03/30 00:21:02;;;;;;;3.43;3.13;;;23.70;49.90;;;;;;5032459;28;20449;-78
2022/03/30 00:23:30;;;;;;;3.53;3.23;;;23.70;49.80;;;;;;5032555;28;20447;-78
2022/03/30 00:25:57;;;;;;;3.13;2.93;;;23.70;49.90;;;;;;5032621;28;20450;-78
2022/03/30 00:28:27;;;;;;;2.83;2.63;;;23.70;49.90;;;;;;5035765;28;20451;-79
2022/03/30 00:30:54;;;;;;;3.47;3.17;;;23.70;49.80;;;;;;5036436;28;20535;-78
2022/03/30 00:33:21;;;;;;;3.50;3.20;;;23.70;49.90;;;;;;5036389;28;20446;-78
2022/03/30 00:35:47;;;;;;;2.97;2.77;;;23.70;49.90;;;;;;5036166;28;20505;-79
2022/03/30 00:38:14;;;;;;;3.13;2.90;;;23.70;50.40;;;;;;5036323;28;20925;-78
2022/03/30 00:40:43;;;;;;;3.07;2.87;;;23.70;49.80;;;;;;5036259;28;20815;-78
2022/03/30 00:43:10;;;;;;;3.33;2.80;;;23.70;49.80;;;;;;5036081;28;20446;-79
2022/03/30 00:45:36;;;;;;;2.80;2.60;;;23.70;49.80;;;;;;5036074;28;20446;-78
2022/03/30 00:48:04;;;;;;;3.37;2.93;;;23.70;49.80;;;;;;5036202;28;20792;-79
2022/03/30 00:57:25;;;;;;;3.27;3.07;;;23.70;49.70;;;;;;4994697;28;20554;-86
2022/03/30 00:59:54;;;;;;;2.50;2.30;;;23.70;49.80;;;;;;4978198;28;20780;-87
2022/03/30 01:02:22;;;;;;;2.80;2.60;;;23.60;49.80;;;;;;4978138;28;20446;-87
2022/03/30 01:04:49;;;;;;;3.00;2.80;;;23.60;49.70;;;;;;4978126;28;20520;-87
2022/03/30 01:07:16;;;;;;;2.90;2.70;;;23.70;49.80;;;;;;4978298;28;20449;-87
2022/03/30 01:09:43;;;;;;;2.70;2.50;;;23.60;49.70;;;;;;4978006;28;20454;-87
2022/03/30 01:12:11;;;;;;;2.33;2.13;;;23.60;49.70;;;;;;4977952;28;20445;-86
2022/03/30 01:14:39;;;;;;;2.50;2.30;;;23.60;49.60;;;;;;4977853;28;20441;-87
2022/03/30 01:17:07;;;;;;;2.80;2.60;;;23.60;49.60;;;;;;4977831;28;20507;-87
2022/03/30 01:19:34;;;;;;;2.77;2.57;;;23.60;49.70;;;;;;4977620;28;20445;-87
2022/03/30 01:22:02;;;;;;;2.80;2.60;;;23.60;49.60;;;;;;4977784;28;20450;-87
2022/03/30 01:24:29;;;;;;;3.30;3.10;;;23.60;49.60;;;;;;4977531;28;20939;-87
2022/03/30 01:26:56;;;;;;;2.70;2.50;;;23.60;49.60;;;;;;4977720;28;20453;-87
2022/03/30 01:32:29;;;;;;;2.80;2.60;;;23.60;49.50;;;;;;4977726;28;20469;-87
2022/03/30 01:34:57;;;;;;;3.03;2.73;;;23.60;49.50;;;;;;4977288;28;20485;-87
2022/03/30 01:37:28;;;;;;;2.50;2.30;;;23.60;49.50;;;;;;4977521;28;20797;-86
2022/03/30 01:39:55;;;;;;;2.80;2.60;;;23.70;49.60;;;;;;4976119;28;20947;-87
2022/03/30 01:42:23;;;;;;;2.73;2.53;;;23.60;49.50;;;;;;4977157;28;20920;-87
2022/03/30 01:44:50;;;;;;;3.30;2.90;;;23.60;49.60;;;;;;4977716;28;20813;-87
2022/03/30 01:47:17;;;;;;;2.67;2.47;;;23.60;49.50;;;;;;4977263;28;20457;-87
2022/03/30 01:49:43;;;;;;;3.10;2.87;;;23.60;49.50;;;;;;4976957;28;20955;-87
2022/03/30 01:52:10;;;;;;;3.07;2.87;;;23.60;49.50;;;;;;4977013;28;20449;-87
2022/03/30 01:54:41;;;;;;;2.40;2.20;;;23.60;49.50;;;;;;4977163;28;20449;-87
2022/03/30 01:57:12;;;;;;;2.67;2.47;;;23.60;49.50;;;;;;4977096;28;20481;-87
2022/03/30 01:59:39;;;;;;;2.37;2.27;;;23.60;49.50;;;;;;4996259;28;20432;-87
2022/03/30 02:02:07;;;;;;;2.70;2.50;;;23.60;49.50;;;;;;4996533;28;20499;-87
2022/03/30 02:04:35;;;;;;;2.30;2.10;;;23.60;49.50;;;;;;4996471;28;20927;-87
2022/03/30 02:07:02;;;;;;;2.70;2.43;;;23.60;49.40;;;;;;4996097;28;20459;-86
2022/03/30 02:09:29;;;;;;;2.60;2.40;;;23.60;49.50;;;;;;4996354;28;20453;-87
2022/03/30 02:11:57;;;;;;;2.83;2.50;;;23.60;49.50;;;;;;4996075;28;20803;-86
2022/03/30 02:14:24;;;;;;;2.63;2.43;;;23.60;49.40;;;;;;4996252;28;20452;-87
2022/03/30 02:16:51;;;;;;;2.60;2.40;;;23.60;49.50;;;;;;4996193;28;20838;-87
2022/03/30 02:19:17;;;;;;;1.90;1.80;;;23.60;49.40;;;;;;4996798;28;20440;-87
2022/03/30 02:21:44;;;;;;;3.00;2.80;;;23.70;49.50;;;;;;4996172;28;20445;-87
2022/03/30 02:24:11;;;;;;;2.40;2.20;;;23.60;49.40;;;;;;4996086;28;20445;-86
2022/03/30 02:26:38;;;;;;;3.13;2.53;;;23.60;49.40;;;;;;4996044;28;20444;-87
2022/03/30 02:29:06;;;;;;;2.80;2.60;;;23.60;49.40;;;;;;4995718;28;20451;-87
2022/03/30 02:31:33;;;;;;;2.50;2.30;;;23.60;49.40;;;;;;4995965;28;20499;-87
2022/03/30 02:34:00;;;;;;;2.40;2.27;;;23.60;50.00;;;;;;4995841;28;20784;-87
2022/03/30 02:36:27;;;;;;;2.33;2.20;;;23.60;49.40;;;;;;4995733;28;20484;-87
2022/03/30 02:38:53;;;;;;;2.57;2.37;;;23.60;49.30;;;;;;4995518;28;20448;-87
2022/03/30 02:41:20;;;;;;;2.20;2.10;;;23.60;49.40;;;;;;4995740;28;20456;-86
2022/03/30 02:43:47;;;;;;;2.37;2.17;;;23.50;49.20;;;;;;4995458;28;20444;-87
2022/03/30 02:46:15;;;;;;;2.60;2.40;;;23.60;49.40;;;;;;4995693;28;20444;-87
2022/03/30 02:48:42;;;;;;;2.50;2.30;;;23.60;49.30;;;;;;4995704;28;20448;-87
2022/03/30 02:51:09;;;;;;;2.43;2.23;;;23.70;49.40;;;;;;4995637;28;20444;-87
2022/03/30 02:53:37;;;;;;;2.63;2.43;;;23.60;49.30;;;;;;4995548;28;20476;-87
2022/03/30 02:56:05;;;;;;;3.23;2.70;;;23.60;49.20;;;;;;4995134;28;21044;-87
2022/03/30 02:58:32;;;;;;;4.03;2.57;;;23.60;49.30;;;;;;4995360;28;20483;-87
2022/03/30 03:00:59;;;;;;;2.70;2.50;;;23.50;49.20;;;;;;4995492;28;20451;-87
2022/03/30 03:03:27;;;;;;;2.70;2.50;;;23.60;49.30;;;;;;4995118;28;20953;-87
2022/03/30 03:05:54;;;;;;;2.60;2.30;;;23.50;49.20;;;;;;4995365;28;20950;-87
2022/03/30 03:08:21;;;;;;;2.00;1.90;;;23.60;49.20;;;;;;4995293;28;20448;-87
2022/03/30 03:10:50;;;;;;;2.40;2.20;;;23.50;49.10;;;;;;4994937;28;20436;-87
2022/03/30 03:13:17;;;;;;;2.33;2.13;;;23.50;49.10;;;;;;4995225;28;20523;-87
2022/03/30 03:15:46;;;;;;;2.60;2.13;;;23.50;49.10;;;;;;4995051;28;20584;-87
2022/03/30 03:18:13;;;;;;;2.20;2.10;;;23.50;49.20;;;;;;4995100;28;20475;-87
2022/03/30 03:20:44;;;;;;;2.93;2.73;;;23.50;49.10;;;;;;4995155;28;20456;-87
2022/03/30 03:23:11;;;;;;;3.07;2.87;;;23.60;49.20;;;;;;4995075;28;20429;-87
2022/03/30 03:25:39;;;;;;;3.00;2.70;;;23.50;49.10;;;;;;4994977;28;20923;-87
2022/03/30 03:28:07;;;;;;;2.50;2.30;;;23.50;49.10;;;;;;4995107;28;20543;-87
2022/03/30 03:30:34;;;;;;;3.30;2.07;;;23.50;49.10;;;;;;4994907;28;20822;-87
2022/03/30 03:33:01;;;;;;;2.30;2.20;;;23.50;49.10;;;;;;4994868;28;20463;-87
2022/03/30 03:35:29;;;;;;;2.70;2.50;;;23.50;49.10;;;;;;4994742;28;20542;-87
2022/03/30 03:37:57;;;;;;;2.50;2.30;;;23.50;49.10;;;;;;4994810;28;20461;-86
2022/03/30 03:40:24;;;;;;;2.47;2.27;;;23.50;49.10;;;;;;4993242;28;20951;-86
2022/03/30 03:42:51;;;;;;;2.93;2.73;;;23.50;49.10;;;;;;4994404;28;20440;-86
2022/03/30 03:45:18;;;;;;;2.63;2.43;;;23.50;49.10;;;;;;4994669;28;20453;-87
2022/03/30 03:47:45;;;;;;;2.07;1.97;;;23.50;49.00;;;;;;4994732;28;20487;-87
2022/03/30 03:50:11;;;;;;;2.20;2.00;;;23.50;49.10;;;;;;4994638;28;20475;-87
2022/03/30 03:52:39;;;;;;;2.00;1.90;;;23.50;49.10;;;;;;4994593;28;20456;-87
2022/03/30 03:55:08;;;;;;;2.40;2.20;;;23.50;49.10;;;;;;4994531;28;20478;-87
2022/03/30 03:57:37;;;;;;;2.40;2.20;;;23.50;49.00;;;;;;4994358;28;20503;-87
2022/03/30 04:00:06;;;;;;;2.23;2.03;;;23.50;49.00;;;;;;4994568;28;20464;-87
2022/03/30 04:02:33;;;;;;;2.90;2.70;;;23.50;49.10;;;;;;4993566;28;20476;-87
2022/03/30 04:04:59;;;;;;;2.30;2.20;;;23.50;49.00;;;;;;4993144;28;20491;-87
2022/03/30 04:07:26;;;;;;;3.00;2.80;;;23.40;48.90;;;;;;4994124;28;20451;-87
2022/03/30 04:09:53;;;;;;;2.60;2.40;;;23.50;49.00;;;;;;4994065;28;20951;-87
2022/03/30 04:12:21;;;;;;;2.40;2.20;;;23.50;49.00;;;;;;4994338;28;20448;-87
2022/03/30 04:14:48;;;;;;;2.60;2.40;;;23.50;49.00;;;;;;4994325;28;20811;-87
2022/03/30 04:17:14;;;;;;;2.40;2.20;;;23.40;48.90;;;;;;4994259;28;20492;-87
2022/03/30 04:19:41;;;;;;;2.70;2.50;;;23.40;48.90;;;;;;4993987;28;20931;-87
2022/03/30 04:22:08;;;;;;;2.40;2.20;;;23.40;48.90;;;;;;4994505;28;20448;-87
2022/03/30 04:24:34;;;;;;;2.57;2.37;;;23.50;48.90;;;;;;4994246;28;20450;-87
2022/03/30 04:27:01;;;;;;;2.20;2.00;;;23.40;48.90;;;;;;4994219;28;20456;-87
2022/03/30 04:29:29;;;;;;;2.00;1.90;;;23.50;49.00;;;;;;4994262;28;20832;-87
2022/03/30 04:35:24;;;;;;;2.43;2.00;;;23.40;48.90;;;;;;4994201;28;20458;-86
2022/03/30 04:37:52;;;;;;;2.73;2.53;;;23.40;49.00;;;;;;4994042;28;20480;-87
2022/03/30 04:40:18;;;;;;;1.80;1.70;;;23.40;48.90;;;;;;4993864;28;20919;-87
2022/03/30 04:42:45;;;;;;;2.63;2.43;;;23.40;48.90;;;;;;4993867;28;20451;-87
2022/03/30 04:45:13;;;;;;;2.67;2.47;;;23.40;48.80;;;;;;4994052;28;20440;-86
2022/03/30 04:47:40;;;;;;;2.00;1.90;;;23.40;49.50;;;;;;4993597;28;20448;-88
2022/03/30 04:50:09;;;;;;;2.57;2.37;;;23.40;48.80;;;;;;4994029;28;20794;-87
2022/03/30 04:52:36;;;;;;;2.60;2.40;;;23.40;48.80;;;;;;4992780;28;20861;-86
2022/03/30 04:55:04;;;;;;;2.40;2.07;;;23.40;48.90;;;;;;4993897;28;20448;-86
2022/03/30 04:57:31;;;;;;;2.47;2.27;;;23.40;48.80;;;;;;4993610;28;20495;-86
2022/03/30 04:59:58;;;;;;;2.50;2.30;;;23.40;48.90;;;;;;4993559;28;20452;-87
2022/03/30 05:02:26;;;;;;;3.20;2.90;;;23.40;48.80;;;;;;4992777;28;20467;-87
2022/03/30 05:04:53;;;;;;;2.80;2.60;;;23.40;48.70;;;;;;4993925;28;20926;-87
2022/03/30 05:07:20;;;;;;;2.80;2.60;;;23.40;48.80;;;;;;4994071;28;20451;-87
2022/03/30 05:09:47;;;;;;;2.20;2.00;;;23.40;48.80;;;;;;4993577;28;20445;-86
2022/03/30 05:12:14;;;;;;;2.27;2.10;;;23.40;48.80;;;;;;4992373;28;21050;-86
2022/03/30 05:14:40;;;;;;;2.37;2.17;;;23.40;48.80;;;;;;4997152;28;20931;-87
2022/03/30 05:17:08;;;;;;;2.10;2.00;;;23.40;48.80;;;;;;4996885;28;20857;-86
2022/03/30 05:19:37;;;;;;;2.30;2.10;;;23.40;48.80;;;;;;4996957;28;20499;-87
2022/03/30 05:22:04;;;;;;;2.23;2.03;;;23.40;48.80;;;;;;4996962;28;20543;-87
2022/03/30 05:24:31;;;;;;;2.20;2.00;;;23.30;48.70;;;;;;4997133;28;20966;-88
2022/03/30 05:26:58;;;;;;;2.43;2.23;;;23.40;48.80;;;;;;4996920;28;20448;-88
2022/03/30 05:29:26;;;;;;;2.80;2.60;;;23.30;49.30;;;;;;4997513;28;20440;-90
2022/03/30 05:31:53;;;;;;;1.97;1.87;;;23.40;48.70;;;;;;4996896;28;20444;-88
2022/03/30 05:34:19;;;;;;;2.63;2.30;;;23.30;48.70;;;;;;4996659;28;20448;-87
2022/03/30 05:36:48;;;;;;;2.53;2.33;;;23.30;48.90;;;;;;4995833;28;20492;-88
2022/03/30 05:39:15;;;;;;;2.63;2.37;;;23.20;49.00;;;;;;4995600;28;20470;-88
2022/03/30 05:41:41;;;;;;;3.67;2.10;;;23.20;49.00;;;;;;4996843;28;20456;-88
2022/03/30 05:44:08;;;;;;;1.80;1.70;;;23.20;49.00;;;;;;4996778;28;20444;-88
2022/03/30 05:46:36;;;;;;;3.07;2.77;;;23.20;49.20;;;;;;4996447;28;20487;-88
2022/03/30 05:49:03;;;;;;;2.37;2.27;;;23.30;49.10;;;;;;4996778;28;20536;-88
2022/03/30 05:51:30;;;;;;;3.23;1.90;;;23.30;49.10;;;;;;4997548;28;20463;-87
2022/03/30 05:53:58;;;;;;;3.00;2.17;;;23.40;49.30;;;;;;4996615;28;20453;-88
2022/03/30 05:59:06;;;;;;;2.00;1.80;;;23.30;49.30;;;;;;4995842;28;20834;-88
2022/03/30 06:01:34;;;;;;;4.10;2.20;;;23.30;49.40;;;;;;4996164;28;20487;-87
2022/03/30 06:04:00;;;;;;;2.33;2.17;;;23.30;49.40;;;;;;4996531;28;20452;-88
2022/03/30 06:06:27;;;;;;;3.53;2.10;;;23.30;49.40;;;;;;4996438;28;20602;-85
2022/03/30 06:08:54;;;;;;;2.20;2.10;;;23.30;49.40;;;;;;4997284;28;20957;-88
2022/03/30 06:11:22;;;;;;;2.57;2.40;;;23.30;49.60;;;;;;4996473;28;20451;-87
2022/03/30 06:13:49;;;;;;;2.40;2.20;;;23.30;49.50;;;;;;4996810;28;20453;-88
2022/03/30 06:16:18;;;;;;;3.73;2.57;;;23.40;49.60;;;;;;4996526;28;20535;-87
2022/03/30 06:18:45;;;;;;;2.83;2.07;;;23.30;50.10;;;;;;4996274;28;20470;-87
2022/03/30 06:21:13;;;;;;;2.40;2.20;;;23.30;49.50;;;;;;4996563;28;20815;-95
2022/03/30 06:23:39;;;;;;;2.40;2.20;;;23.40;49.50;;;;;;4996263;28;20444;-87
2022/03/30 06:26:06;;;;;;;2.20;2.00;;;23.40;49.40;;;;;;4995430;28;20452;-87
2022/03/30 06:28:34;;;;;;;2.63;2.20;;;23.40;49.50;;;;;;4995950;28;20797;-87
2022/03/30 06:31:01;;;;;;;2.33;2.13;;;23.40;49.50;;;;;;4995971;28;20447;-87
2022/03/30 06:33:28;;;;;;;2.23;2.03;;;23.40;49.50;;;;;;4995650;28;20455;-87
2022/03/30 06:35:55;;;;;;;2.70;2.50;;;23.40;49.50;;;;;;4995603;28;20451;-87
2022/03/30 06:38:21;;;;;;;2.87;2.40;;;23.40;49.50;;;;;;4995649;28;21020;-87
2022/03/30 06:40:49;;;;;;;4.87;3.60;;;23.40;49.70;;;;;;4995799;28;20814;-87
2022/03/30 06:43:16;;;;;;;4.13;3.23;;;23.40;49.80;;;;;;4995719;28;20456;-87
2022/03/30 06:45:46;;;;;;;5.50;3.20;;;23.30;49.80;;;;;;4995958;28;20440;-87
2022/03/30 06:48:13;;;;;;;11.53;3.70;;;23.30;49.60;;;;;;4995645;28;20441;-87
2022/03/30 06:50:40;;;;;;;4.47;2.97;;;23.30;49.70;;;;;;4995635;28;20451;-86
2022/03/30 06:53:07;;;;;;;7.87;3.53;;;23.30;49.80;;;;;;4995575;28;20445;-87
2022/03/30 06:55:34;;;;;;;4.83;3.57;;;23.30;50.00;;;;;;4995548;28;20456;-89
2022/03/30 06:58:01;;;;;;;5.57;3.47;;;23.30;50.00;;;;;;4995169;28;20488;-87
2022/03/30 07:00:27;;;;;;;4.50;3.17;;;23.30;49.60;;;;;;4995457;28;20797;-88
2022/03/30 07:02:55;;;;;;;4.83;3.80;;;23.40;50.00;;;;;;4995117;28;20923;-88
2022/03/30 07:05:22;;;;;;;4.13;3.50;;;23.30;50.10;;;;;;4995493;28;20462;-88
2022/03/30 07:10:33;;;;;;;3.33;3.10;;;23.20;50.00;;;;;;4995112;28;20492;-89
2022/03/30 07:13:03;;;;;;;3.30;3.10;;;23.20;49.80;;;;;;4995228;28;20452;-89
2022/03/30 07:15:35;;;;;;;3.83;3.07;;;23.20;49.70;;;;;;4995283;28;20481;-89
2022/03/30 07:24:34;;;;;;;3.77;2.80;;;23.20;50.00;;;;;;4973751;28;20946;-84
2022/03/30 07:27:01;;;;;;;4.70;3.00;;;23.20;49.40;;;;;;4973169;28;20451;-86
2022/03/30 07:29:28;;;;;;;5.67;3.20;;;23.20;49.40;;;;;;4973207;28;20835;-88
2022/03/30 07:31:56;;;;;;;6.43;2.80;;;23.30;49.20;;;;;;4957341;28;20433;-88
2022/03/30 07:34:24;;;;;;;6.63;2.67;;;23.50;49.40;;;;;;4973068;28;20445;-88
2022/03/30 07:36:51;;;;;;;2.40;2.00;;;23.40;49.40;;;;;;4956336;28;20439;-87
2022/03/30 07:39:18;;;;;;;5.00;2.93;;;23.40;49.50;;;;;;4973166;28;20453;-87
2022/03/30 07:41:45;;;;;;;5.77;2.60;;;23.40;49.60;;;;;;4973123;28;20532;-87
2022/03/30 07:44:12;;;;;;;4.50;3.20;;;23.40;49.50;;;;;;4972900;28;20485;-87
2022/03/30 07:46:39;;;;;;;6.10;3.40;;;23.40;49.70;;;;;;4994130;28;20451;-87
2022/03/30 07:49:06;;;;;;;9.23;3.00;;;23.50;49.80;;;;;;4994560;28;20456;-87
2022/03/30 07:51:34;;;;;;;2.63;2.43;;;23.40;49.70;;;;;;4994503;28;20814;-89
2022/03/30 07:54:01;;;;;;;6.57;2.73;;;23.40;49.70;;;;;;4994043;28;20452;-86
2022/03/30 07:56:27;;;;;;;3.57;2.60;;;23.40;49.60;;;;;;4994499;28;20475;-88
2022/03/30 07:58:56;;;;;;;2.97;2.50;;;23.60;49.70;;;;;;4994044;28;20571;-89
2022/03/30 08:01:23;;;;;;;5.60;2.40;;;23.60;49.60;;;;;;4994332;28;20459;-89
2022/03/30 08:03:49;;;;;;;8.03;2.90;;;23.50;49.60;;;;;;4994404;28;20451;-89
2022/03/30 08:06:16;;;;;;;3.50;2.83;;;23.50;49.60;;;;;;4993995;28;20930;-87
2022/03/30 08:08:44;;;;;;;3.60;2.60;;;23.50;49.50;;;;;;4994077;28;20451;-88
2022/03/30 08:11:11;;;;;;;2.63;2.43;;;23.50;49.40;;;;;;4994113;28;20451;-86
2022/03/30 08:13:38;;;;;;;5.80;2.50;;;23.60;49.60;;;;;;4994311;28;20462;-87
2022/03/30 08:16:05;;;;;;;2.87;2.50;;;23.60;49.80;;;;;;4994291;28;20440;-86
2022/03/30 08:18:32;;;;;;;4.03;2.80;;;23.60;49.60;;;;;;4994263;28;20494;-87
2022/03/30 08:23:44;;;;;;;3.30;2.87;;;23.50;49.40;;;;;;4994297;28;20485;-83
2022/03/30 08:26:11;;;;;;;6.80;5.40;;;23.60;49.80;;;;;;4994001;28;20437;-81
2022/03/30 08:28:38;;;;;;;9.90;3.77;;;23.60;48.80;;;;;;4994157;28;20445;-84
2022/03/30 08:31:05;;;;;;;6.80;4.10;;;23.50;48.80;;;;;;4994129;28;20445;-84
2022/03/30 08:33:32;;;;;;;5.90;3.07;;;23.50;49.10;;;;;;4992885;28;20437;-84
2022/03/30 08:35:59;;;;;;;5.40;2.87;;;23.50;49.20;;;;;;4994234;28;20443;-85
2022/03/30 08:38:27;;;;;;;4.53;3.03;;;23.50;49.30;;;;;;4994330;28;20491;-85
2022/03/30 08:40:57;;;;;;;9.33;3.17;;;23.50;49.10;;;;;;4994146;28;20471;-85
2022/03/30 08:43:25;;;;;;;7.27;3.00;;;23.50;49.10;;;;;;4994050;28;20451;-85
2022/03/30 08:45:55;;;;;;;12.23;7.03;;;23.50;49.10;;;;;;4994086;28;20792;-85
2022/03/30 08:48:21;;;;;;;10.73;6.77;;;23.40;47.70;;;;;;4995544;28;20543;-84
2022/03/30 08:50:49;;;;;;;8.43;5.40;;;23.30;47.20;;;;;;4997576;28;20451;-84
2022/03/30 08:53:18;;;;;;;3.17;2.87;;;23.40;47.80;;;;;;4997822;28;20485;-84
2022/03/30 08:55:45;;;;;;;4.80;2.80;;;23.40;48.40;;;;;;4997735;28;20498;-84
2022/03/30 08:58:14;;;;;;;2.83;2.63;;;23.40;48.60;;;;;;4997209;28;20492;-85
2022/03/30 09:00:41;;;;;;;4.83;2.60;;;23.50;48.60;;;;;;4997534;28;20440;-86
2022/03/30 09:03:08;;;;;;;4.60;2.57;;;23.50;48.90;;;;;;4997223;28;20444;-85
2022/03/30 09:05:37;;;;;;;8.43;3.27;;;23.50;48.90;;;;;;4997504;28;20459;-85
2022/03/30 09:08:14;;;;;;;5.77;3.07;;;23.50;48.70;;;;;;4997339;28;20487;-85
2022/03/30 09:10:44;;;;;;;3.80;2.77;;;23.60;48.60;;;;;;4997543;28;20857;-85
2022/03/30 09:13:14;;;;;;;2.90;2.60;;;23.60;48.60;;;;;;4997425;28;20440;-85
2022/03/30 09:15:42;;;;;;;4.23;2.50;;;23.60;48.60;;;;;;4997098;28;20429;-85
2022/03/30 09:18:10;;;;;;;2.03;1.93;;;23.60;48.50;;;;;;4997266;28;20841;-85
2022/03/30 09:20:39;;;;;;;2.93;2.57;;;23.60;48.50;;;;;;4997338;28;20478;-85
2022/03/30 09:23:08;;;;;;;7.17;3.03;;;23.60;48.50;;;;;;4997284;28;20448;-85
2022/03/30 09:25:36;;;;;;;3.00;2.00;;;23.70;48.50;;;;;;4997484;28;20456;-85
2022/03/30 09:28:04;;;;;;;2.60;2.40;;;23.70;48.40;;;;;;4997183;28;20452;-85
2022/03/30 09:30:32;;;;;;;5.67;2.40;;;23.70;48.40;;;;;;4996831;28;20460;-85
2022/03/30 09:33:00;;;;;;;2.50;2.23;;;23.70;48.50;;;;;;4996780;28;20923;-85
2022/03/30 09:35:30;;;;;;;3.40;2.27;;;23.70;48.40;;;;;;4997183;28;20436;-85
2022/03/30 09:38:05;;;;;;;2.33;1.90;;;23.70;48.50;;;;;;4997470;28;20480;-86
2022/03/30 09:40:43;;;;;;;3.07;2.77;;;23.80;48.60;;;;;;4997018;28;20438;-85
2022/03/30 09:43:19;;;;;;;3.47;3.17;;;23.80;48.60;;;;;;4995859;28;20445;-85
2022/03/30 09:45:49;;;;;;;3.00;2.67;;;23.80;48.70;;;;;;4997105;28;20531;-85
2022/03/30 09:48:19;;;;;;;3.83;2.70;;;23.80;48.70;;;;;;4996881;28;20452;-85
2022/03/30 09:50:48;;;;;;;3.00;2.33;;;23.80;48.70;;;;;;4996601;28;20432;-85
2022/03/30 09:53:17;;;;;;;5.50;2.80;;;23.80;48.70;;;;;;4996798;28;20450;-85
2022/03/30 09:55:56;;;;;;;2.70;2.50;;;23.80;48.70;;;;;;4996761;28;20443;-85
2022/03/30 09:58:25;;;;;;;2.37;2.17;;;23.90;48.80;;;;;;4996158;28;20546;-85
2022/03/30 10:01:13;;;;;;;3.67;2.23;;;23.80;48.70;;;;;;4995832;28;20448;-85
2022/03/30 10:03:43;;;;;;;3.17;2.97;;;23.90;48.70;;;;;;4996764;28;20449;-86
2022/03/30 10:06:11;;;;;;;3.27;2.20;;;23.90;48.90;;;;;;4996624;28;20491;-85
2022/03/30 10:08:40;;;;;;;2.60;2.40;;;23.90;48.80;;;;;;4996255;28;20523;-85
2022/03/30 10:11:07;;;;;;;2.37;2.17;;;23.90;48.80;;;;;;4996570;28;20440;-86
2022/03/30 10:13:34;;;;;;;2.20;2.00;;;23.90;48.90;;;;;;4996541;28;20507;-85
2022/03/30 10:16:01;;;;;;;3.13;2.03;;;23.90;48.90;;;;;;4996272;28;20495;-85
2022/03/30 10:18:32;;;;;;;2.20;2.00;;;24.00;49.00;;;;;;4996086;28;20495;-86
2022/03/30 10:21:15;;;;;;;3.50;2.23;;;24.00;49.00;;;;;;4996237;28;20440;-85
2022/03/30 10:24:02;;;;;;;3.50;1.80;;;24.10;49.00;;;;;;4996143;28;21006;-85
2022/03/30 10:26:40;;;;;;;2.43;2.20;;;24.00;49.00;;;;;;4996120;28;20433;-85
2022/03/30 10:29:11;;;;;;;1.80;1.70;;;24.00;48.90;;;;;;4997464;28;20428;-86
2022/03/30 10:31:38;;;;;;;3.20;2.20;;;24.00;49.00;;;;;;4996608;28;20428;-86
2022/03/30 10:37:07;;;;;;;2.20;2.00;;;24.10;49.00;;;;;;5112816;27;1255204;-84
2022/03/30 10:39:34;;;;;;;2.10;2.00;;;24.10;49.00;;;;;;5133587;28;20634;-85
2022/03/30 10:42:07;;;;;;;2.03;1.93;;;24.10;49.00;;;;;;5130805;28;20438;-85
2022/03/30 10:44:41;;;;;;;2.10;1.90;;;24.10;49.00;;;;;;5131106;28;20442;-85
2022/03/30 10:47:11;;;;;;;4.00;2.30;;;24.20;49.10;;;;;;5133264;28;20441;-84
2022/03/30 10:49:40;;;;;;;2.73;2.00;;;24.10;49.00;;;;;;5113963;28;20434;-86
2022/03/30 10:52:47;;;;;;;2.30;2.10;;;24.30;49.20;;;;;;5131643;28;20453;-86
2022/03/30 10:55:36;;;;;;;2.33;2.13;;;24.20;49.10;;;;;;5090167;28;21077;-85
2022/03/30 10:58:05;;;;;;;2.57;2.27;;;24.20;49.40;;;;;;5092794;28;20455;-86
2022/03/30 11:00:36;;;;;;;2.07;1.97;;;24.20;49.10;;;;;;5072544;28;20448;-85
2022/03/30 11:03:16;;;;;;;4.00;3.67;;;24.30;49.20;;;;;;5090096;28;20459;-86
2022/03/30 11:05:58;;;;;;;3.93;3.53;;;24.20;48.50;;;;;;5090221;28;20447;-88
2022/03/30 11:08:56;;;;;;;4.33;3.53;;;24.10;48.50;;;;;;5104207;28;20431;-89
2022/03/30 16:53:01;;;;;;;6.77;2.20;;;23.70;48.30;;;;;;5086866;28;20872;-92
2022/03/30 16:55:31;;;;;;;5.00;2.67;;;23.70;48.60;;;;;;5064893;28;20485;-85
2022/03/30 16:57:59;;;;;;;4.60;2.23;;;23.70;48.40;;;;;;5051928;28;20452;-88
2022/03/30 17:00:27;;;;;;;5.53;2.33;;;23.80;48.50;;;;;;5074842;28;20484;-87
2022/03/30 17:02:54;;;;;;;6.17;1.83;;;23.80;48.60;;;;;;5074125;28;20448;-87
2022/03/30 17:05:22;;;;;;;4.50;2.27;;;23.80;48.60;;;;;;5065987;28;20434;-83
2022/03/30 17:09:57;;;;;;;2.80;2.43;;;23.80;48.50;;;;;;5048893;28;20955;-83
2022/03/30 17:10:36;;;;;;;3.83;2.20;;;23.90;48.60;;;;;;5034544;28;20427;-87
2022/03/30 17:13:03;;;;;;;4.20;2.30;;;23.90;48.60;;;;;;5034297;28;20493;-85
2022/03/30 17:15:30;;;;;;;2.50;2.30;;;23.90;48.60;;;;;;5034641;28;20487;-85
2022/03/30 17:17:57;;;;;;;7.43;2.60;;;23.90;48.60;;;;;;5067450;28;20445;-89
2022/03/30 17:20:24;;;;;;;2.57;2.37;;;23.90;48.60;;;;;;5066101;28;20441;-87
2022/03/30 17:22:52;;;;;;;2.83;2.23;;;23.90;48.60;;;;;;5074046;28;20473;-86
2022/03/30 17:25:23;;;;;;;4.47;2.10;;;23.90;48.50;;;;;;5061848;28;20446;-86
2022/03/30 17:27:52;;;;;;;2.13;1.93;;;24.00;48.60;;;;;;5055164;28;20436;-88
2022/03/30 17:30:23;;;;;;;2.10;1.90;;;23.90;48.50;;;;;;5074075;28;20437;-88
2022/03/30 17:32:50;;;;;;;2.90;2.03;;;23.90;48.40;;;;;;5074065;28;20445;-89
2022/03/30 17:35:18;;;;;;;3.07;2.07;;;24.00;48.50;;;;;;5074007;28;20451;-89
2022/03/30 17:37:45;;;;;;;3.20;2.37;;;23.90;48.50;;;;;;5073919;28;20950;-89
2022/03/30 17:40:12;;;;;;;2.80;2.50;;;23.90;48.50;;;;;;5073709;28;20441;-89
2022/03/30 17:42:40;;;;;;;1.87;1.67;;;23.90;48.40;;;;;;5073643;28;20443;-94
2022/03/30 17:45:10;;;;;;;2.63;2.10;;;24.00;48.40;;;;;;5074107;28;20806;-92
2022/03/30 17:47:37;;;;;;;2.47;2.27;;;24.00;48.40;;;;;;5073873;28;20575;-88
2022/03/30 17:52:49;;;;;;;2.87;2.17;;;23.90;48.30;;;;;;5073240;28;20471;-85
2022/03/30 17:55:16;;;;;;;2.17;1.97;;;23.90;48.40;;;;;;5092392;28;20482;-84
2022/03/30 17:57:45;;;;;;;2.40;2.20;;;23.90;48.50;;;;;;5075886;28;20493;-85
2022/03/30 18:00:14;;;;;;;2.60;1.90;;;23.90;48.50;;;;;;5093390;28;21184;-85
2022/03/30 18:02:42;;;;;;;2.20;1.53;;;23.90;48.30;;;;;;5093200;28;20444;-84
2022/03/30 18:05:10;;;;;;;5.40;2.70;;;23.90;48.30;;;;;;5093493;28;20439;-85
2022/03/30 18:07:36;;;;;;;2.00;1.90;;;23.90;48.20;;;;;;5075398;28;20494;-85
2022/03/30 18:10:04;;;;;;;1.90;1.70;;;24.00;48.30;;;;;;5093595;28;20448;-84
2022/03/30 18:12:31;;;;;;;3.70;2.00;;;23.90;48.10;;;;;;5093378;28;20466;-84
2022/03/30 18:14:57;;;;;;;1.87;1.77;;;23.90;48.10;;;;;;5093283;28;20444;-85
2022/03/30 18:17:26;;;;;;;2.30;2.10;;;24.00;48.10;;;;;;5093727;28;20444;-85
2022/03/30 18:19:52;;;;;;;1.73;1.63;;;23.90;48.00;;;;;;5093987;28;20440;-85
2022/03/30 18:22:19;;;;;;;2.13;1.93;;;23.90;48.00;;;;;;5093656;28;20467;-85
2022/03/30 18:24:46;;;;;;;1.73;1.63;;;23.90;48.00;;;;;;5093172;28;20533;-85
2022/03/30 18:27:13;;;;;;;2.20;2.00;;;23.90;47.90;;;;;;5093623;28;20518;-85
2022/03/30 18:29:40;;;;;;;3.07;2.03;;;23.90;47.90;;;;;;5093468;28;20447;-85
2022/03/30 18:32:07;;;;;;;1.70;1.60;;;23.90;47.90;;;;;;5093394;28;20450;-85
2022/03/30 18:34:36;;;;;;;2.20;2.03;;;23.90;47.90;;;;;;5093789;28;20436;-85
2022/03/30 18:37:03;;;;;;;3.10;1.80;;;23.90;47.90;;;;;;5093649;28;20444;-85
2022/03/30 18:39:31;;;;;;;2.33;2.13;;;23.90;47.90;;;;;;5093654;28;20448;-89
2022/03/30 18:41:59;;;;;;;2.17;1.97;;;23.90;47.90;;;;;;5093546;28;20941;-89
2022/03/30 18:44:25;;;;;;;1.87;1.67;;;23.90;48.20;;;;;;5075693;28;20838;-89
2022/03/30 18:46:52;;;;;;;4.10;1.90;;;23.90;48.40;;;;;;5093582;28;20489;-88
2022/03/30 18:49:19;;;;;;;2.20;1.97;;;23.90;48.50;;;;;;5094044;28;20451;-89
2022/03/30 18:51:50;;;;;;;2.10;1.90;;;23.90;48.60;;;;;;5083887;28;20525;-90
2022/03/30 18:54:17;;;;;;;1.90;1.80;;;23.90;48.60;;;;;;5073911;28;20516;-89
2022/03/30 18:56:44;;;;;;;1.60;1.50;;;23.90;48.50;;;;;;5074480;28;20444;-90
2022/03/30 18:59:11;;;;;;;1.93;1.83;;;23.90;48.30;;;;;;5079461;28;20437;-92
2022/03/30 19:01:37;;;;;;;2.57;1.90;;;23.90;48.30;;;;;;5079701;28;20447;-90
2022/03/30 19:04:05;;;;;;;2.20;2.00;;;23.90;48.20;;;;;;5078768;28;20440;-90
2022/03/30 19:06:32;;;;;;;2.73;2.20;;;23.90;48.20;;;;;;5077633;28;20488;-89